createdAt,value
2023-09-27T00:01:25.931Z,6.90
2023-09-27T00:07:28.134Z,6.50
2023-09-27T00:13:30.961Z,6.87
2023-09-27T00:19:33.021Z,8.43
2023-09-27T00:25:34.963Z,7.67
2023-09-27T00:31:36.916Z,9.90
2023-09-27T00:37:39.409Z,9.70
2023-09-27T00:43:41.419Z,10.33
2023-09-27T00:49:43.722Z,7.13
2023-09-27T00:55:45.820Z,10.77
2023-09-27T01:01:48.219Z,7.27
2023-09-27T01:07:50.339Z,9.83
2023-09-27T01:13:52.358Z,6.43
2023-09-27T01:19:54.408Z,7.87
2023-09-27T01:26:01.001Z,10.60
2023-09-27T01:32:03.629Z,9.30
2023-09-27T01:38:08.122Z,13.20
2023-09-27T01:44:10.163Z,10.03
2023-09-27T01:50:13.784Z,9.40
2023-09-27T01:56:16.006Z,7.80
2023-09-27T02:02:18.160Z,7.80
2023-09-27T02:08:20.247Z,8.90
2023-09-27T02:14:22.305Z,9.00
2023-09-27T02:20:25.764Z,12.40
2023-09-27T02:26:27.930Z,9.27
2023-09-27T02:32:30.544Z,6.73
2023-09-27T02:38:32.590Z,6.43
2023-09-27T02:44:34.592Z,12.40
2023-09-27T02:50:36.648Z,16.00
2023-09-27T02:56:38.626Z,10.03
2023-09-27T03:02:40.803Z,9.10
2023-09-27T03:08:44.276Z,9.00
2023-09-27T03:14:46.244Z,8.47
2023-09-27T03:20:48.191Z,9.07
2023-09-27T03:26:50.160Z,9.43
2023-09-27T03:32:52.163Z,11.80
2023-09-27T03:38:55.512Z,12.27
2023-09-27T03:44:57.484Z,9.77
2023-09-27T03:50:59.838Z,10.23
2023-09-27T03:57:01.775Z,8.00
2023-09-27T04:03:04.111Z,10.57
2023-09-27T04:09:07.294Z,13.97
2023-09-27T04:15:10.476Z,8.60
2023-09-27T04:21:12.638Z,8.97
2023-09-27T04:27:14.783Z,9.37
2023-09-27T04:33:16.754Z,8.43
2023-09-27T04:39:19.895Z,10.13
2023-09-27T04:45:22.054Z,9.87
2023-09-27T04:51:23.979Z,9.93
2023-09-27T04:57:26.145Z,8.20
2023-09-27T05:03:28.163Z,10.50
2023-09-27T05:09:30.374Z,5.40
2023-09-27T05:15:35.358Z,11.37
2023-09-27T05:21:37.740Z,7.50
2023-09-27T05:27:39.966Z,8.93
2023-09-27T05:33:43.024Z,10.53
2023-09-27T05:39:45.880Z,7.70
2023-09-27T05:45:48.069Z,7.40
2023-09-27T05:51:50.016Z,7.63
2023-09-27T05:57:52.099Z,18.80
2023-09-27T06:03:54.144Z,8.57
2023-09-27T06:09:56.670Z,7.43
2023-09-27T06:16:01.855Z,6.73
2023-09-27T06:22:07.547Z,7.60
2023-09-27T06:28:09.472Z,8.60
2023-09-27T06:34:11.994Z,5.60
2023-09-27T06:40:18.220Z,4.40
2023-09-27T06:46:20.800Z,6.80
2023-09-27T06:52:23.710Z,5.80
2023-09-27T06:58:26.356Z,4.40
2023-09-27T07:04:28.435Z,4.20
2023-09-27T07:10:30.527Z,4.43
2023-09-27T07:16:34.470Z,4.97
2023-09-27T07:22:39.984Z,5.87
2023-09-27T07:28:42.039Z,5.67
2023-09-27T07:34:43.990Z,4.00
2023-09-27T07:40:49.765Z,4.70
2023-09-27T07:46:52.564Z,6.23
2023-09-27T07:52:56.151Z,4.20
2023-09-27T07:58:59.856Z,3.63
2023-09-27T08:05:10.920Z,4.40
2023-09-27T08:11:13.030Z,4.30
2023-09-27T08:17:15.149Z,5.43
2023-09-27T08:23:17.133Z,4.20
2023-09-27T08:29:21.703Z,3.50
2023-09-27T08:35:23.820Z,3.33
2023-09-27T08:41:25.958Z,6.37
2023-09-27T08:47:30.489Z,8.60
2023-09-27T08:53:39.928Z,5.67
2023-09-27T08:59:42.166Z,4.27
2023-09-27T09:05:45.755Z,5.10
2023-09-27T09:11:56.006Z,5.17
2023-09-27T09:18:00.952Z,7.50
2023-09-27T09:24:21.569Z,3.93
2023-09-27T09:30:39.731Z,4.93
2023-09-27T09:36:41.707Z,4.40
2023-09-27T09:42:44.647Z,4.23
2023-09-27T09:48:46.810Z,5.03
2023-09-27T09:54:57.103Z,9.20
2023-09-27T10:01:04.855Z,5.00
2023-09-27T10:07:07.469Z,4.70
2023-09-27T10:13:12.111Z,3.63
2023-09-27T10:19:29.293Z,3.40
2023-09-27T10:25:35.589Z,3.00
2023-09-27T10:31:59.038Z,3.60
2023-09-27T10:38:05.570Z,3.10
2023-09-27T10:44:07.649Z,2.87
2023-09-27T10:50:11.836Z,5.17
2023-09-27T10:56:15.764Z,5.00
2023-09-27T11:02:30.733Z,9.40
2023-09-27T11:08:32.809Z,6.23
2023-09-27T11:14:35.504Z,4.77
2023-09-27T11:20:38.860Z,3.90
2023-09-27T11:26:45.101Z,3.57
2023-09-27T11:32:53.361Z,4.53
2023-09-27T11:38:55.473Z,3.60
2023-09-27T11:45:09.630Z,3.43
2023-09-27T11:51:12.934Z,5.60
2023-09-27T11:57:14.912Z,4.67
2023-09-27T12:03:17.045Z,4.87
2023-09-27T12:09:19.205Z,5.43
2023-09-27T12:15:21.218Z,4.53
2023-09-27T12:21:25.085Z,8.47
2023-09-27T12:27:27.125Z,3.90
2023-09-27T12:33:29.539Z,3.53
2023-09-27T12:39:31.693Z,4.17
2023-09-27T12:45:33.803Z,3.30
2023-09-27T12:51:48.275Z,4.27
2023-09-27T12:57:51.571Z,4.77
2023-09-27T13:03:53.949Z,3.73
2023-09-27T13:09:56.123Z,8.53
2023-09-27T13:15:58.249Z,4.80
2023-09-27T13:22:00.263Z,3.70
2023-09-27T13:28:03.014Z,4.40
2023-09-27T13:34:11.197Z,5.13
2023-09-27T13:40:14.945Z,5.10
2023-09-27T13:46:16.941Z,4.10
2023-09-27T13:52:18.948Z,5.47
2023-09-27T13:58:20.896Z,3.20
2023-09-27T14:04:22.876Z,4.33
2023-09-27T14:10:25.115Z,4.40
2023-09-27T14:16:28.809Z,5.10
2023-09-27T14:22:31.005Z,2.90
2023-09-27T14:28:34.267Z,2.67
2023-09-27T14:40:42.753Z,5.77
2023-09-27T14:46:44.937Z,3.80
2023-09-27T14:52:46.976Z,4.33
2023-09-27T14:58:48.984Z,3.00
2023-09-27T15:04:51.036Z,5.27
2023-09-27T15:10:53.299Z,4.40
2023-09-27T15:16:55.349Z,2.73
2023-09-27T15:22:57.327Z,3.17
2023-09-27T15:29:01.279Z,5.23
2023-09-27T15:35:03.623Z,5.33
2023-09-27T15:41:05.643Z,3.30
2023-09-27T15:47:10.866Z,4.23
2023-09-27T15:53:13.051Z,3.83
2023-09-27T15:59:15.910Z,3.87
2023-09-27T16:05:18.010Z,5.73
2023-09-27T16:11:31.002Z,5.33
2023-09-27T16:17:33.609Z,6.10
2023-09-27T16:23:36.009Z,4.47
2023-09-27T16:29:38.001Z,4.83
2023-09-27T16:35:41.341Z,4.30
2023-09-27T16:41:43.808Z,5.70
2023-09-27T16:47:45.802Z,5.43
2023-09-27T16:53:48.274Z,4.87
2023-09-27T16:59:50.267Z,6.30
2023-09-27T17:05:53.153Z,5.40
2023-09-27T17:11:55.150Z,4.43
2023-09-27T17:17:57.642Z,5.90
2023-09-27T17:23:59.620Z,5.20
2023-09-27T17:30:02.936Z,5.27
2023-09-27T17:36:05.579Z,5.90
2023-09-27T17:42:07.592Z,4.50
2023-09-27T17:48:09.627Z,8.97
2023-09-27T17:54:12.452Z,9.63
2023-09-27T18:00:15.433Z,5.33
2023-09-27T18:06:18.050Z,9.00
2023-09-27T18:12:20.033Z,5.67
2023-09-27T18:18:22.226Z,11.47
2023-09-27T18:24:26.066Z,9.50
2023-09-27T18:30:28.010Z,7.00
2023-09-27T18:36:31.408Z,12.73
2023-09-27T18:42:33.347Z,10.17
2023-09-27T18:48:35.315Z,6.10
2023-09-27T18:54:37.476Z,7.10
2023-09-27T19:00:39.840Z,8.70
2023-09-27T19:06:42.149Z,9.90
2023-09-27T19:12:44.128Z,7.60
2023-09-27T19:18:46.143Z,11.20
2023-09-27T19:24:48.640Z,6.87
2023-09-27T19:30:50.912Z,7.53
2023-09-27T19:36:52.948Z,10.90
2023-09-27T19:42:54.946Z,6.00
2023-09-27T19:48:56.950Z,8.60
2023-09-27T19:54:59.151Z,19.60
2023-09-27T20:01:01.165Z,12.43
2023-09-27T20:07:03.178Z,11.37
2023-09-27T20:13:05.161Z,8.17
2023-09-27T20:19:07.206Z,8.30
2023-09-27T20:25:11.567Z,11.53
2023-09-27T20:31:17.073Z,7.50
2023-09-27T20:37:19.114Z,8.07
2023-09-27T20:43:21.096Z,6.83
2023-09-27T20:49:23.079Z,10.33
2023-09-27T20:55:25.091Z,8.20
2023-09-27T21:01:37.516Z,7.30
2023-09-27T21:07:39.681Z,9.40
2023-09-27T21:13:41.687Z,7.90
2023-09-27T21:19:43.913Z,11.83
2023-09-27T21:25:46.229Z,11.67
2023-09-27T21:31:48.385Z,8.30
2023-09-27T21:37:50.443Z,10.13
2023-09-27T21:43:53.103Z,8.80
2023-09-27T21:49:55.410Z,7.90
2023-09-27T21:55:57.431Z,15.10
2023-09-27T22:01:59.401Z,7.40
2023-09-27T22:08:02.081Z,11.30
2023-09-27T22:14:07.207Z,8.47
2023-09-27T22:20:12.688Z,8.77
2023-09-27T22:26:19.259Z,10.40
2023-09-27T22:32:21.269Z,18.23
2023-09-27T22:38:24.875Z,10.57
2023-09-27T22:44:26.872Z,9.60
2023-09-27T22:50:45.284Z,9.23
2023-09-27T22:56:49.258Z,12.50
2023-09-27T23:02:59.064Z,10.90
2023-09-27T23:09:01.448Z,9.93
2023-09-27T23:15:13.631Z,15.90
2023-09-27T23:21:20.772Z,10.30
2023-09-27T23:27:27.852Z,15.00
2023-09-27T23:33:29.788Z,14.40
2023-09-27T23:39:34.477Z,12.97
2023-09-27T23:45:38.650Z,10.70
2023-09-27T23:51:44.109Z,11.17
2023-09-27T23:57:48.442Z,10.13
